createdAt,value
2022-11-06T00:01:36.499Z,63.60
2022-11-06T00:04:03.184Z,63.60
2022-11-06T00:06:48.046Z,63.40
2022-11-06T00:09:16.104Z,63.30
2022-11-06T00:11:42.819Z,63.50
2022-11-06T00:14:09.535Z,63.20
2022-11-06T00:16:39.934Z,63.30
2022-11-06T00:19:07.136Z,63.00
2022-11-06T00:21:34.513Z,63.10
2022-11-06T00:24:03.691Z,63.10
2022-11-06T00:26:31.116Z,63.30
2022-11-06T00:28:57.921Z,64.60
2022-11-06T00:31:35.663Z,64.80
2022-11-06T00:34:02.799Z,64.50
2022-11-06T00:36:33.008Z,64.30
2022-11-06T00:38:59.981Z,64.00
2022-11-06T00:41:26.970Z,63.80
2022-11-06T00:43:56.415Z,63.60
2022-11-06T00:46:23.222Z,63.60
2022-11-06T00:48:50.164Z,63.50
2022-11-06T00:51:21.458Z,63.70
2022-11-06T00:53:48.198Z,63.80
2022-11-06T00:56:16.367Z,63.90
2022-11-06T00:58:43.301Z,63.80
2022-11-06T01:01:11.074Z,63.80
2022-11-06T01:03:41.693Z,63.80
2022-11-06T01:06:13.094Z,63.70
2022-11-06T01:08:40.006Z,63.70
2022-11-06T01:11:10.040Z,63.50
2022-11-06T01:13:36.974Z,63.60
2022-11-06T01:16:09.142Z,63.50
2022-11-06T01:18:36.476Z,63.40
2022-11-06T01:21:03.987Z,63.60
2022-11-06T01:23:30.625Z,64.10
2022-11-06T01:25:58.307Z,63.40
2022-11-06T01:28:25.536Z,63.30
2022-11-06T01:30:52.450Z,63.20
2022-11-06T01:33:19.110Z,63.30
2022-11-06T01:35:46.497Z,63.30
2022-11-06T01:38:13.364Z,63.10
2022-11-06T01:40:41.188Z,63.10
2022-11-06T01:43:18.984Z,63.10
2022-11-06T01:45:49.681Z,63.00
2022-11-06T01:48:17.510Z,63.00
2022-11-06T01:50:46.405Z,62.90
2022-11-06T01:53:13.544Z,62.80
2022-11-06T01:55:42.874Z,62.90
2022-11-06T01:58:11.949Z,62.90
2022-11-06T02:00:38.917Z,62.90
2022-11-06T02:03:05.668Z,62.80
2022-11-06T02:05:32.369Z,62.70
2022-11-06T02:07:59.683Z,62.60
2022-11-06T02:10:26.811Z,62.80
2022-11-06T02:12:53.440Z,62.50
2022-11-06T02:15:32.370Z,62.70
2022-11-06T02:18:14.738Z,62.40
2022-11-06T02:20:46.602Z,62.40
2022-11-06T02:23:29.437Z,62.00
2022-11-06T02:26:11.188Z,63.10
2022-11-06T02:28:39.823Z,62.40
2022-11-06T02:31:10.185Z,62.50
2022-11-06T02:33:39.863Z,62.30
2022-11-06T02:36:09.042Z,62.40
2022-11-06T02:38:41.219Z,62.20
2022-11-06T02:41:09.907Z,62.40
2022-11-06T02:43:40.701Z,62.20
2022-11-06T02:46:11.759Z,62.10
2022-11-06T02:48:40.135Z,62.30
2022-11-06T02:51:08.728Z,62.20
2022-11-06T02:53:36.289Z,62.40
2022-11-06T02:56:05.729Z,62.50
2022-11-06T02:58:39.092Z,62.30
2022-11-06T03:01:11.527Z,62.40
2022-11-06T03:03:41.004Z,62.50
2022-11-06T03:06:10.866Z,62.20
2022-11-06T03:08:43.477Z,62.40
2022-11-06T03:11:19.288Z,62.10
2022-11-06T03:13:58.079Z,62.40
2022-11-06T03:16:24.707Z,62.40
2022-11-06T03:18:58.285Z,62.20
2022-11-06T03:21:49.070Z,62.10
2022-11-06T03:24:31.530Z,62.10
2022-11-06T03:26:59.336Z,62.20
2022-11-06T03:29:25.945Z,62.10
2022-11-06T03:31:56.261Z,62.10
2022-11-06T03:34:29.077Z,62.20
2022-11-06T03:37:03.993Z,62.20
2022-11-06T03:39:33.037Z,62.40
2022-11-06T03:42:02.417Z,62.70
2022-11-06T03:44:30.792Z,63.70
2022-11-06T03:47:08.476Z,64.00
2022-11-06T03:49:37.213Z,63.80
2022-11-06T03:52:08.151Z,63.50
2022-11-06T03:54:38.829Z,63.20
2022-11-06T03:57:09.705Z,62.90
2022-11-06T03:59:39.661Z,62.80
2022-11-06T04:02:07.227Z,62.70
2022-11-06T04:04:51.820Z,63.10
2022-11-06T04:07:20.830Z,63.10
2022-11-06T04:10:09.920Z,63.10
2022-11-06T04:12:46.392Z,62.90
2022-11-06T04:15:14.835Z,62.90
2022-11-06T04:17:41.853Z,63.00
2022-11-06T04:20:10.646Z,62.90
2022-11-06T04:22:57.961Z,62.90
2022-11-06T04:25:43.003Z,62.80
2022-11-06T04:28:31.855Z,62.70
2022-11-06T04:31:17.359Z,62.80
2022-11-06T04:33:54.454Z,62.80
2022-11-06T04:36:39.905Z,62.70
2022-11-06T04:39:12.328Z,62.70
2022-11-06T04:41:46.212Z,62.70
2022-11-06T04:44:36.257Z,62.70
2022-11-06T04:47:07.678Z,62.70
2022-11-06T04:49:35.613Z,62.70
2022-11-06T04:52:03.364Z,63.00
2022-11-06T04:54:30.298Z,63.00
2022-11-06T04:56:58.902Z,63.10
2022-11-06T04:59:25.682Z,63.10
2022-11-06T05:01:52.384Z,63.00
2022-11-06T05:04:19.850Z,62.90
2022-11-06T05:06:46.559Z,62.70
2022-11-06T05:09:13.217Z,62.90
2022-11-06T05:11:39.960Z,62.70
2022-11-06T05:14:06.765Z,62.90
2022-11-06T05:16:33.478Z,62.70
2022-11-06T05:19:00.126Z,62.80
2022-11-06T05:21:45.423Z,62.80
2022-11-06T05:24:12.139Z,62.50
2022-11-06T05:26:39.021Z,62.60
2022-11-06T05:29:05.674Z,62.50
2022-11-06T05:31:32.311Z,62.60
2022-11-06T05:33:59.014Z,62.30
2022-11-06T05:36:25.684Z,62.70
2022-11-06T05:38:52.396Z,62.60
2022-11-06T05:41:19.044Z,62.60
2022-11-06T05:43:45.918Z,62.60
2022-11-06T05:46:35.576Z,62.50
2022-11-06T05:48:59.314Z,62.50
2022-11-06T05:51:25.993Z,62.40
2022-11-06T05:53:52.641Z,62.50
2022-11-06T05:56:19.326Z,62.50
2022-11-06T05:58:45.970Z,62.30
2022-11-06T06:01:13.030Z,62.50
2022-11-06T06:03:39.738Z,62.50
2022-11-06T06:06:06.601Z,62.40
2022-11-06T06:08:33.256Z,62.40
2022-11-06T06:10:59.869Z,62.40
2022-11-06T06:13:26.571Z,62.40
2022-11-06T06:15:53.207Z,62.50
2022-11-06T06:18:19.868Z,62.40
2022-11-06T06:20:46.489Z,62.40
2022-11-06T06:23:13.144Z,62.20
2022-11-06T06:25:39.772Z,62.30
2022-11-06T06:28:06.437Z,62.40
2022-11-06T06:30:34.148Z,62.20
2022-11-06T06:33:03.669Z,62.30
2022-11-06T06:35:30.340Z,62.20
2022-11-06T06:37:57.002Z,62.20
2022-11-06T06:40:23.717Z,62.20
2022-11-06T06:42:50.375Z,62.20
2022-11-06T06:45:17.135Z,62.20
2022-11-06T06:47:43.800Z,62.10
2022-11-06T06:50:10.721Z,62.20
2022-11-06T06:52:37.450Z,62.10
2022-11-06T06:55:04.478Z,62.10
2022-11-06T06:57:31.184Z,62.10
2022-11-06T06:59:58.089Z,62.00
2022-11-06T07:02:24.860Z,62.10
2022-11-06T07:04:51.570Z,62.10
2022-11-06T07:07:18.226Z,61.80
2022-11-06T07:09:44.851Z,62.20
2022-11-06T07:12:11.500Z,62.10
2022-11-06T07:14:38.177Z,61.90
2022-11-06T07:17:04.831Z,62.30
2022-11-06T07:19:31.468Z,62.50
2022-11-06T07:21:58.135Z,62.40
2022-11-06T07:24:24.812Z,62.50
2022-11-06T07:26:51.457Z,62.70
2022-11-06T07:29:18.132Z,62.50
2022-11-06T07:31:45.615Z,62.40
2022-11-06T07:34:12.325Z,62.60
2022-11-06T07:36:39.072Z,62.70
2022-11-06T07:39:05.701Z,62.80
2022-11-06T07:41:32.431Z,62.60
2022-11-06T07:43:59.077Z,62.60
2022-11-06T07:46:25.763Z,62.60
2022-11-06T07:48:52.468Z,62.20
2022-11-06T07:51:19.112Z,62.80
2022-11-06T07:53:45.798Z,62.80
2022-11-06T07:56:12.472Z,62.70
2022-11-06T07:58:39.121Z,62.80
2022-11-06T08:01:05.977Z,62.80
2022-11-06T08:03:34.507Z,62.70
2022-11-06T08:06:03.486Z,62.60
2022-11-06T08:08:31.378Z,62.70
2022-11-06T08:11:01.851Z,62.60
2022-11-06T08:13:28.553Z,62.70
2022-11-06T08:15:55.216Z,62.70
2022-11-06T08:18:21.896Z,62.60
2022-11-06T08:20:48.526Z,62.60
2022-11-06T08:23:15.200Z,62.60
2022-11-06T08:25:41.912Z,62.60
2022-11-06T08:28:08.932Z,62.50
2022-11-06T08:30:35.587Z,62.50
2022-11-06T08:33:03.950Z,62.40
2022-11-06T08:35:30.735Z,62.30
2022-11-06T08:37:57.412Z,62.20
2022-11-06T08:40:29.436Z,62.10
2022-11-06T08:43:03.961Z,62.00
2022-11-06T08:45:30.789Z,62.00
2022-11-06T08:48:01.090Z,62.00
2022-11-06T08:50:27.770Z,62.20
2022-11-06T08:52:56.477Z,62.20
2022-11-06T08:55:23.144Z,62.20
2022-11-06T08:57:54.650Z,62.20
2022-11-06T09:00:21.784Z,62.20
2022-11-06T09:02:48.460Z,62.10
2022-11-06T09:05:15.120Z,62.10
2022-11-06T09:07:41.757Z,62.10
2022-11-06T09:10:08.605Z,62.00
2022-11-06T09:12:35.333Z,62.10
2022-11-06T09:15:01.996Z,62.10
2022-11-06T09:17:28.654Z,62.00
2022-11-06T09:19:55.290Z,62.10
2022-11-06T09:22:21.944Z,62.20
2022-11-06T09:25:03.122Z,62.30
2022-11-06T09:27:30.605Z,62.40
2022-11-06T09:29:57.255Z,62.40
2022-11-06T09:32:24.644Z,62.40
2022-11-06T09:34:51.367Z,62.40
2022-11-06T09:37:18.016Z,62.40
2022-11-06T09:39:44.665Z,62.40
2022-11-06T09:42:20.648Z,62.30
2022-11-06T09:44:56.356Z,62.40
2022-11-06T09:47:25.750Z,62.30
2022-11-06T09:49:53.783Z,62.50
2022-11-06T09:52:31.567Z,62.40
2022-11-06T09:55:19.302Z,62.40
2022-11-06T09:57:49.355Z,61.80
2022-11-06T10:00:17.338Z,62.20
2022-11-06T10:02:47.208Z,62.40
2022-11-06T10:05:18.146Z,62.50
2022-11-06T10:07:45.709Z,62.60
2022-11-06T10:10:16.929Z,62.60
2022-11-06T10:13:02.375Z,62.60
2022-11-06T10:15:33.239Z,62.70
2022-11-06T10:18:05.988Z,62.90
2022-11-06T10:21:02.195Z,62.90
2022-11-06T10:23:28.818Z,62.90
2022-11-06T10:26:08.368Z,62.80
2022-11-06T10:28:47.433Z,62.80
2022-11-06T10:31:22.961Z,62.80
2022-11-06T10:33:55.419Z,62.70
2022-11-06T10:36:27.901Z,62.70
2022-11-06T10:38:56.220Z,62.60
2022-11-06T10:41:24.981Z,62.70
2022-11-06T10:44:02.262Z,62.90
2022-11-06T10:46:49.701Z,62.80
2022-11-06T10:49:23.708Z,62.80
2022-11-06T10:51:53.349Z,62.90
2022-11-06T10:54:41.143Z,62.90
2022-11-06T10:57:34.443Z,62.90
2022-11-06T11:00:01.158Z,63.10
2022-11-06T11:02:31.177Z,63.00
2022-11-06T11:04:58.642Z,63.00
2022-11-06T11:07:26.561Z,63.00
2022-11-06T11:09:53.410Z,63.00
2022-11-06T11:12:25.573Z,63.10
2022-11-06T11:15:05.525Z,63.00
2022-11-06T11:17:32.229Z,63.00
2022-11-06T11:19:58.982Z,63.00
2022-11-06T11:22:31.917Z,62.80
2022-11-06T11:25:01.709Z,62.40
2022-11-06T11:27:30.747Z,62.50
2022-11-06T11:29:57.745Z,61.50
2022-11-06T11:32:24.422Z,62.80
2022-11-06T11:34:56.640Z,63.20
2022-11-06T11:37:30.906Z,63.20
2022-11-06T11:40:22.545Z,63.50
2022-11-06T11:42:49.540Z,63.20
2022-11-06T11:45:17.893Z,63.10
2022-11-06T11:47:46.895Z,62.80
2022-11-06T11:50:16.729Z,62.70
2022-11-06T11:52:44.511Z,62.80
2022-11-06T11:55:16.076Z,62.80
2022-11-06T11:57:44.641Z,62.90
2022-11-06T12:00:16.262Z,63.00
2022-11-06T12:02:44.238Z,63.10
2022-11-06T12:05:12.817Z,62.90
2022-11-06T12:07:50.949Z,62.90
2022-11-06T12:10:17.768Z,62.80
2022-11-06T12:12:48.662Z,62.80
2022-11-06T12:15:24.542Z,63.10
2022-11-06T12:18:06.338Z,62.90
2022-11-06T12:20:39.601Z,62.80
2022-11-06T12:23:10.325Z,62.80
2022-11-06T12:25:40.165Z,62.90
2022-11-06T12:28:13.141Z,62.90
2022-11-06T12:30:41.869Z,62.90
2022-11-06T12:33:15.041Z,63.60
2022-11-06T12:35:43.877Z,63.60
2022-11-06T12:38:25.945Z,63.50
2022-11-06T12:40:58.754Z,63.50
2022-11-06T12:43:30.188Z,63.30
2022-11-06T12:46:17.186Z,63.40
2022-11-06T12:48:49.626Z,63.30
2022-11-06T12:51:38.717Z,63.20
2022-11-06T12:54:28.754Z,63.20
2022-11-06T12:57:17.058Z,63.00
2022-11-06T12:59:56.597Z,63.10
2022-11-06T13:02:46.476Z,63.00
2022-11-06T13:05:21.546Z,63.10
2022-11-06T13:07:54.385Z,62.90
2022-11-06T13:10:28.706Z,62.90
2022-11-06T13:13:02.833Z,62.90
2022-11-06T13:15:35.830Z,62.80
2022-11-06T13:18:21.002Z,62.80
2022-11-06T13:20:52.370Z,62.80
2022-11-06T13:23:26.725Z,62.90
2022-11-06T13:25:55.932Z,63.10
2022-11-06T13:28:26.693Z,62.80
2022-11-06T13:30:54.078Z,63.00
2022-11-06T13:33:23.955Z,62.80
2022-11-06T13:35:50.934Z,62.90
2022-11-06T13:38:22.311Z,62.90
2022-11-06T13:40:53.736Z,62.90
2022-11-06T13:43:26.013Z,63.10
2022-11-06T13:46:15.140Z,63.20
2022-11-06T13:49:00.764Z,63.10
2022-11-06T13:51:50.611Z,63.10
2022-11-06T13:54:20.355Z,63.10
2022-11-06T13:57:05.865Z,63.10
2022-11-06T13:59:51.394Z,63.10
2022-11-06T14:02:41.536Z,63.10
2022-11-06T14:05:08.191Z,63.10
2022-11-06T14:07:35.587Z,63.10
2022-11-06T14:10:02.798Z,62.90
2022-11-06T14:12:29.671Z,62.90
2022-11-06T14:15:14.018Z,62.80
2022-11-06T14:17:40.894Z,62.80
2022-11-06T14:20:27.695Z,62.90
2022-11-06T14:22:54.430Z,63.70
2022-11-06T14:25:27.243Z,63.60
2022-11-06T14:27:54.299Z,63.00
2022-11-06T14:30:57.694Z,62.60
2022-11-06T14:33:36.141Z,63.00
2022-11-06T14:36:12.311Z,62.90
2022-11-06T14:38:39.168Z,63.00
2022-11-06T14:41:24.767Z,63.00
2022-11-06T14:43:53.280Z,63.10
2022-11-06T14:46:22.623Z,63.20
2022-11-06T14:48:53.162Z,63.10
2022-11-06T14:51:25.796Z,63.10
2022-11-06T14:53:53.905Z,63.10
2022-11-06T14:56:22.030Z,63.00
2022-11-06T14:58:50.384Z,63.00
2022-11-06T15:01:24.817Z,63.10
2022-11-06T15:03:54.850Z,63.10
2022-11-06T15:06:36.981Z,63.10
2022-11-06T15:09:11.377Z,63.10
2022-11-06T15:11:47.425Z,63.20
2022-11-06T15:14:14.501Z,63.30
2022-11-06T15:16:41.198Z,63.10
2022-11-06T15:19:13.817Z,63.10
2022-11-06T15:21:49.144Z,63.10
2022-11-06T15:24:19.301Z,63.10
2022-11-06T15:26:50.832Z,63.10
2022-11-06T15:29:17.577Z,63.10
2022-11-06T15:31:46.361Z,63.10
2022-11-06T15:34:16.030Z,63.10
2022-11-06T15:36:43.665Z,63.10
2022-11-06T15:39:24.162Z,63.10
2022-11-06T15:41:52.309Z,63.10
2022-11-06T15:44:19.813Z,63.10
2022-11-06T15:46:53.882Z,63.10
2022-11-06T15:49:21.068Z,63.10
2022-11-06T15:52:00.521Z,63.10
2022-11-06T15:54:40.872Z,63.20
2022-11-06T15:57:07.622Z,63.20
2022-11-06T15:59:34.296Z,63.10
2022-11-06T16:02:04.169Z,63.10
2022-11-06T16:04:31.393Z,63.10
2022-11-06T16:07:00.084Z,63.20
2022-11-06T16:09:27.112Z,63.20
2022-11-06T16:11:54.059Z,63.10
2022-11-06T16:14:21.075Z,63.10
2022-11-06T16:16:48.938Z,63.10
2022-11-06T16:19:25.108Z,63.10
2022-11-06T16:21:56.227Z,63.10
2022-11-06T16:24:23.573Z,63.10
2022-11-06T16:26:50.937Z,63.10
2022-11-06T16:29:19.565Z,63.10
2022-11-06T16:31:48.291Z,63.10
2022-11-06T16:34:32.707Z,63.10
2022-11-06T16:36:59.410Z,63.10
2022-11-06T16:39:40.021Z,63.00
2022-11-06T16:42:21.649Z,63.00
2022-11-06T16:44:49.037Z,63.00
2022-11-06T16:47:19.669Z,63.00
2022-11-06T16:49:53.658Z,62.90
2022-11-06T16:52:34.662Z,62.90
2022-11-06T16:55:01.314Z,63.00
2022-11-06T16:57:31.014Z,63.00
2022-11-06T17:00:20.668Z,63.00
2022-11-06T17:02:48.495Z,62.90
2022-11-06T17:05:15.327Z,62.80
2022-11-06T17:07:42.498Z,62.70
2022-11-06T17:10:26.065Z,62.60
2022-11-06T17:12:52.812Z,62.30
2022-11-06T17:15:19.571Z,62.10
2022-11-06T17:17:46.274Z,62.10
2022-11-06T17:20:17.389Z,62.30
2022-11-06T17:22:44.543Z,62.30
2022-11-06T17:25:11.293Z,62.50
2022-11-06T17:27:37.978Z,62.30
2022-11-06T17:30:04.878Z,62.30
2022-11-06T17:32:31.622Z,62.20
2022-11-06T17:34:58.290Z,62.30
2022-11-06T17:37:25.053Z,62.30
2022-11-06T17:39:51.736Z,62.30
2022-11-06T17:42:18.403Z,62.30
2022-11-06T17:44:45.061Z,62.30
2022-11-06T17:47:11.713Z,62.20
2022-11-06T17:49:38.365Z,62.30
2022-11-06T17:52:05.125Z,62.30
2022-11-06T17:54:33.243Z,62.20
2022-11-06T17:57:01.877Z,62.30
2022-11-06T17:59:28.536Z,61.50
2022-11-06T18:01:55.281Z,61.90
2022-11-06T18:04:22.843Z,62.20
2022-11-06T18:06:50.960Z,62.30
2022-11-06T18:09:18.056Z,62.90
2022-11-06T18:11:45.156Z,62.80
2022-11-06T18:14:12.112Z,62.70
2022-11-06T18:16:43.646Z,62.60
2022-11-06T18:19:11.936Z,62.60
2022-11-06T18:21:38.649Z,62.60
2022-11-06T18:24:05.657Z,62.50
2022-11-06T18:26:32.602Z,62.40
2022-11-06T18:28:59.455Z,62.50
2022-11-06T18:31:26.085Z,62.40
2022-11-06T18:33:52.826Z,62.20
2022-11-06T18:36:19.474Z,62.30
2022-11-06T18:38:46.171Z,62.10
2022-11-06T18:41:14.061Z,61.90
2022-11-06T18:43:41.176Z,62.50
2022-11-06T18:46:08.619Z,62.50
2022-11-06T18:48:35.607Z,62.40
2022-11-06T18:51:34.052Z,62.30
2022-11-06T18:54:04.559Z,62.30
2022-11-06T18:56:31.554Z,62.30
2022-11-06T18:59:00.142Z,62.30
2022-11-06T19:01:28.056Z,62.20
2022-11-06T19:03:54.955Z,62.20
2022-11-06T19:06:21.792Z,62.40
2022-11-06T19:08:49.211Z,62.30
2022-11-06T19:11:16.809Z,62.30
2022-11-06T19:13:47.827Z,62.30
2022-11-06T19:16:15.532Z,62.20
2022-11-06T19:18:42.261Z,62.30
2022-11-06T19:21:09.987Z,62.70
2022-11-06T19:23:37.659Z,62.70
2022-11-06T19:26:25.508Z,62.40
2022-11-06T19:28:51.998Z,62.40
2022-11-06T19:31:19.265Z,62.40
2022-11-06T19:33:45.904Z,62.30
2022-11-06T19:36:12.572Z,62.20
2022-11-06T19:38:39.213Z,62.10
2022-11-06T19:41:06.050Z,62.30
2022-11-06T19:43:37.382Z,62.30
2022-11-06T19:46:04.516Z,62.10
2022-11-06T19:48:32.027Z,62.10
2022-11-06T19:51:00.220Z,62.10
2022-11-06T19:53:27.519Z,62.00
2022-11-06T19:55:54.254Z,61.90
2022-11-06T19:58:21.467Z,62.00
2022-11-06T20:00:48.639Z,62.10
2022-11-06T20:03:16.308Z,62.10
2022-11-06T20:05:43.425Z,62.00
2022-11-06T20:08:10.117Z,62.00
2022-11-06T20:10:37.364Z,61.80
2022-11-06T20:13:04.542Z,61.50
2022-11-06T20:15:31.449Z,61.60
2022-11-06T20:17:58.109Z,61.90
2022-11-06T20:20:25.914Z,61.70
2022-11-06T20:22:53.089Z,61.80
2022-11-06T20:25:20.073Z,61.80
2022-11-06T20:27:46.894Z,61.70
2022-11-06T20:30:13.985Z,61.50
2022-11-06T20:32:40.721Z,61.20
2022-11-06T20:35:07.769Z,61.00
2022-11-06T20:37:34.622Z,61.00
2022-11-06T20:40:01.286Z,60.90
2022-11-06T20:42:28.014Z,61.10
2022-11-06T20:44:54.687Z,61.10
2022-11-06T20:47:21.443Z,61.10
2022-11-06T20:49:48.181Z,61.20
2022-11-06T20:52:15.638Z,61.10
2022-11-06T20:54:46.946Z,61.10
2022-11-06T20:57:15.015Z,61.20
2022-11-06T20:59:41.673Z,61.30
2022-11-06T21:02:10.778Z,61.20
2022-11-06T21:04:37.590Z,61.30
2022-11-06T21:07:04.259Z,61.30
2022-11-06T21:09:31.059Z,61.20
2022-11-06T21:11:57.756Z,61.30
2022-11-06T21:14:24.468Z,61.20
2022-11-06T21:16:52.610Z,61.30
2022-11-06T21:19:19.475Z,61.40
2022-11-06T21:21:46.138Z,61.50
2022-11-06T21:24:12.905Z,61.30
2022-11-06T21:26:39.961Z,61.30
2022-11-06T21:29:07.788Z,61.50
2022-11-06T21:31:34.572Z,61.60
2022-11-06T21:34:02.231Z,61.70
2022-11-06T21:36:30.619Z,61.60
2022-11-06T21:38:58.643Z,61.60
2022-11-06T21:41:26.657Z,61.60
2022-11-06T21:43:53.533Z,61.70
2022-11-06T21:46:21.024Z,61.70
2022-11-06T21:48:48.439Z,61.80
2022-11-06T21:51:20.341Z,61.70
2022-11-06T21:54:06.231Z,61.70
2022-11-06T21:56:33.096Z,61.80
2022-11-06T21:59:00.399Z,61.90
2022-11-06T22:01:27.808Z,61.70
2022-11-06T22:03:55.018Z,62.00
2022-11-06T22:06:24.369Z,62.10
2022-11-06T22:08:51.927Z,62.20
2022-11-06T22:11:25.962Z,61.80
2022-11-06T22:13:53.778Z,61.70
2022-11-06T22:16:22.131Z,61.90
2022-11-06T22:18:48.991Z,61.90
2022-11-06T22:21:17.382Z,61.50
2022-11-06T22:23:44.370Z,61.70
2022-11-06T22:26:12.618Z,61.50
2022-11-06T22:28:39.574Z,61.40
2022-11-06T22:31:06.501Z,60.80
2022-11-06T22:33:33.487Z,61.10
2022-11-06T22:36:11.391Z,60.80
2022-11-06T22:38:38.951Z,60.90
2022-11-06T22:41:06.886Z,61.00
2022-11-06T22:43:34.160Z,61.10
2022-11-06T22:46:07.569Z,61.00
2022-11-06T22:48:34.412Z,60.90
2022-11-06T22:51:02.872Z,60.90
2022-11-06T22:53:31.459Z,60.80
2022-11-06T22:55:58.482Z,61.10
2022-11-06T22:58:25.779Z,61.30
2022-11-06T23:00:53.065Z,60.80
2022-11-06T23:03:20.245Z,60.80
2022-11-06T23:05:47.441Z,61.30
2022-11-06T23:08:14.156Z,60.90
2022-11-06T23:10:42.386Z,61.00
2022-11-06T23:13:09.682Z,61.10
2022-11-06T23:15:36.757Z,61.00
2022-11-06T23:18:04.013Z,61.10
2022-11-06T23:20:33.217Z,61.00
2022-11-06T23:23:00.564Z,61.00
2022-11-06T23:25:27.896Z,61.50
2022-11-06T23:27:54.704Z,61.00
2022-11-06T23:30:21.354Z,61.40
2022-11-06T23:32:47.991Z,61.00
2022-11-06T23:35:17.019Z,61.00
2022-11-06T23:37:44.118Z,61.20
2022-11-06T23:40:11.069Z,60.90
2022-11-06T23:42:37.716Z,61.90
2022-11-06T23:45:23.266Z,62.00
2022-11-06T23:47:50.310Z,62.10
2022-11-06T23:50:17.369Z,61.70
2022-11-06T23:52:44.656Z,61.50
2022-11-06T23:55:11.743Z,61.40
2022-11-06T23:57:38.820Z,61.30
